Time;durP1;ratioP1;P1;durP2;ratioP2;P2;SDS_P1;SDS_P2;PMS_P1;PMS_P2;Temp;Humidity;BMP_temperature;BMP_pressure;BME280_temperature;BME280_humidity;BME280_pressure;Samples;Min_cycle;Max_cycle;Signal;HPM_P1;HPM_P2
2021/04/13 00:01:25;;;;;;;14.73;4.90;;;;;;;0.83;100.00;98829.09;5032193;28;20049;-77
2021/04/13 00:03:51;;;;;;;11.80;4.95;;;;;;;0.82;100.00;98825.66;5023051;28;20147;-76
2021/04/13 00:06:26;;;;;;;16.17;5.65;;;;;;;0.82;100.00;98824.81;5042381;28;20045;-76
2021/04/13 00:08:57;;;;;;;10.25;5.38;;;;;;;0.77;100.00;98825.50;5045385;28;20067;-78
2021/04/13 00:11:25;;;;;;;9.23;4.57;;;;;;;0.77;100.00;98835.34;5043925;28;20059;-77
2021/04/13 00:13:59;;;;;;;11.98;5.57;;;;;;;0.84;100.00;98833.41;5067444;28;20131;-76
2021/04/13 00:16:29;;;;;;;9.45;5.45;;;;;;;0.84;100.00;98844.88;5064652;28;20044;-77
2021/04/13 00:18:56;;;;;;;9.07;5.57;;;;;;;0.74;100.00;98833.13;5061205;28;20040;-78
2021/04/13 00:21:28;;;;;;;16.35;5.90;;;;;;;0.74;100.00;98827.78;5058132;28;20040;-77
2021/04/13 00:23:57;;;;;;;14.15;5.75;;;;;;;0.78;100.00;98824.44;5073763;28;20059;-77
2021/04/13 00:26:27;;;;;;;11.25;5.07;;;;;;;0.74;100.00;98830.44;5065113;28;20223;-77
2021/04/13 00:28:54;;;;;;;12.80;5.97;;;;;;;0.77;100.00;98832.69;5049423;28;20558;-77
2021/04/13 00:31:41;;;;;;;12.43;5.35;;;;;;;0.69;100.00;98825.78;5075469;28;20044;-76
2021/04/13 00:34:23;;;;;;;9.82;5.40;;;;;;;0.74;100.00;98822.47;5083060;28;20049;-77
2021/04/13 00:36:55;;;;;;;9.98;5.53;;;;;;;0.77;100.00;98833.50;5084750;28;20110;-78
2021/04/13 00:39:30;;;;;;;13.25;6.05;;;;;;;0.72;100.00;98836.03;5042544;28;20041;-78
2021/04/13 00:42:12;;;;;;;13.38;6.45;;;;;;;0.72;100.00;98824.53;5030552;28;20045;-76
2021/04/13 00:44:49;;;;;;;11.70;6.10;;;;;;;0.76;100.00;98825.72;5055402;28;20045;-77
2021/04/13 00:47:34;;;;;;;14.55;6.05;;;;;;;0.74;100.00;98822.47;5055846;28;20048;-77
2021/04/13 00:50:08;;;;;;;12.48;5.90;;;;;;;0.77;100.00;98824.69;5066097;28;20045;-78
2021/04/13 00:52:40;;;;;;;13.52;5.93;;;;;;;0.74;100.00;98820.63;5066578;28;20036;-77
2021/04/13 00:55:10;;;;;;;19.42;6.22;;;;;;;0.75;100.00;98827.56;5062407;28;20063;-76
2021/04/13 00:57:42;;;;;;;12.10;5.53;;;;;;;0.77;100.00;98819.34;5061540;28;20048;-76
2021/04/13 01:00:20;;;;;;;13.45;6.30;;;;;;;0.70;100.00;98827.41;5086294;28;20067;-77
2021/04/13 01:02:46;;;;;;;11.10;6.07;;;;;;;0.72;100.00;98820.03;5068629;28;20052;-76
2021/04/13 01:05:19;;;;;;;13.32;6.38;;;;;;;0.72;100.00;98824.53;5069049;28;20514;-76
2021/04/13 01:07:48;;;;;;;12.45;5.85;;;;;;;0.70;100.00;98816.75;5067897;28;20197;-77
2021/04/13 01:10:35;;;;;;;10.90;6.18;;;;;;;0.69;100.00;98823.13;5084261;28;20064;-77
2021/04/13 01:13:13;;;;;;;12.48;6.35;;;;;;;0.59;100.00;98833.50;5085615;28;20074;-75
2021/04/13 01:15:42;;;;;;;11.05;6.03;;;;;;;0.61;100.00;98826.09;5056431;28;20049;-78
2021/04/13 01:18:17;;;;;;;12.35;6.55;;;;;;;0.59;100.00;98833.50;5077919;28;20044;-76
2021/04/13 01:20:53;;;;;;;13.63;7.00;;;;;;;0.57;100.00;98830.22;5041711;28;20060;-78
2021/04/13 01:23:27;;;;;;;12.70;6.97;;;;;;;0.50;100.00;98816.16;5079512;28;20040;-76
2021/04/13 01:26:03;;;;;;;12.98;7.05;;;;;;;0.55;100.00;98827.78;5072253;28;20103;-77
2021/04/13 01:28:34;;;;;;;13.23;7.00;;;;;;;0.55;100.00;98827.78;5064594;28;20139;-76
2021/04/13 01:31:11;;;;;;;15.93;6.90;;;;;;;0.55;100.00;98837.63;5094371;28;20037;-76
2021/04/13 01:33:53;;;;;;;10.75;6.88;;;;;;;0.52;100.00;98830.06;5083824;28;20053;-76
2021/04/13 01:36:28;;;;;;;12.02;7.55;;;;;;;0.58;100.00;98839.84;5069764;28;20049;-76
2021/04/13 01:39:01;;;;;;;16.35;7.75;;;;;;;0.58;100.00;98835.34;5068943;28;20041;-76
2021/04/13 01:41:44;;;;;;;15.80;8.65;;;;;;;0.55;100.00;98838.44;5067121;28;20053;-76
2021/04/13 01:44:11;;;;;;;13.93;7.95;;;;;;;0.60;100.00;98835.94;5084580;28;20044;-76
2021/04/13 01:46:39;;;;;;;15.48;7.78;;;;;;;0.67;100.00;98845.72;5084556;28;20044;-76
2021/04/13 01:49:05;;;;;;;17.08;8.40;;;;;;;0.73;100.00;98842.13;5064985;28;20097;-76
2021/04/13 01:51:33;;;;;;;14.80;7.80;;;;;;;0.73;100.00;98842.97;5066941;28;20044;-76
2021/04/13 01:54:04;;;;;;;14.40;8.13;;;;;;;0.80;100.00;98840.22;5066282;28;20078;-77
2021/04/13 01:56:48;;;;;;;13.95;7.90;;;;;;;0.84;100.00;98838.75;5082694;28;20048;-77
2021/04/13 01:59:21;;;;;;;15.98;7.68;;;;;;;0.88;100.00;98846.06;5048587;28;20044;-77
2021/04/13 02:01:57;;;;;;;13.20;7.70;;;;;;;0.94;100.00;98850.50;5079511;28;20041;-77
2021/04/13 02:04:31;;;;;;;13.32;7.50;;;;;;;1.00;100.00;98844.28;5083487;28;20055;-76
2021/04/13 02:10:38;;;;;;;14.25;7.40;;;;;;;1.18;100.00;98836.28;5032198;28;20042;-77
2021/04/13 02:13:34;;;;;;;15.63;7.97;;;;;;;1.20;100.00;98839.53;5023713;28;20049;-77
2021/04/13 02:16:00;;;;;;;13.27;7.72;;;;;;;1.20;100.00;98844.03;5040606;28;20091;-78
2021/04/13 02:18:35;;;;;;;12.32;7.85;;;;;;;1.16;100.00;98837.53;5050112;28;20037;-77
2021/04/13 02:21:08;;;;;;;12.07;7.15;;;;;;;1.21;100.00;98840.34;5061073;28;20105;-78
2021/04/13 02:23:39;;;;;;;16.15;7.75;;;;;;;1.22;100.00;98840.09;5043105;28;20060;-77
2021/04/13 02:26:06;;;;;;;13.95;7.82;;;;;;;1.21;100.00;98835.00;5059171;28;20076;-77
2021/04/13 02:28:35;;;;;;;16.08;7.95;;;;;;;1.20;100.00;98836.84;5057970;28;20160;-78
2021/04/13 02:31:07;;;;;;;13.32;7.28;;;;;;;1.17;100.00;98837.28;5037262;28;20044;-78
2021/04/13 02:33:38;;;;;;;15.00;7.70;;;;;;;1.24;100.00;98847.88;5038276;28;20037;-78
2021/04/13 02:36:27;;;;;;;14.48;7.93;;;;;;;1.20;100.00;98852.03;5037276;28;20191;-78
2021/04/13 02:38:54;;;;;;;12.88;7.60;;;;;;;1.16;100.00;98848.19;5053470;28;20497;-78
2021/04/13 02:41:37;;;;;;;15.88;8.57;;;;;;;1.14;100.00;98856.41;5052679;28;20049;-78
2021/04/13 02:44:07;;;;;;;17.50;8.80;;;;;;;1.17;100.00;98853.28;5052723;28;20115;-78
2021/04/13 02:46:35;;;;;;;16.45;8.35;;;;;;;1.18;100.00;98852.28;5052194;28;20500;-79
2021/04/13 02:49:12;;;;;;;14.82;8.27;;;;;;;1.19;100.00;98853.88;5053588;28;20065;-78
2021/04/13 02:51:46;;;;;;;14.50;8.15;;;;;;;1.18;100.00;98849.59;5051902;28;20033;-79
2021/04/13 02:54:20;;;;;;;13.55;8.35;;;;;;;1.17;100.00;98858.63;5054513;28;20442;-79
2021/04/13 02:56:50;;;;;;;13.82;8.23;;;;;;;1.13;100.00;98838.81;5016955;28;20056;-78
2021/04/13 02:59:16;;;;;;;13.02;8.45;;;;;;;1.15;100.00;98854.56;5044320;28;20040;-79
2021/04/13 03:01:54;;;;;;;12.63;8.07;;;;;;;1.12;100.00;98865.66;5047150;28;20041;-77
2021/04/13 03:04:23;;;;;;;13.80;8.40;;;;;;;1.08;100.00;98859.16;5027436;28;20580;-77
2021/04/13 03:06:52;;;;;;;17.33;8.80;;;;;;;1.07;100.00;98855.69;5014220;28;20111;-77
2021/04/13 03:09:25;;;;;;;14.88;8.35;;;;;;;1.06;100.00;98859.38;5012850;28;20105;-78
2021/04/13 03:11:56;;;;;;;11.43;6.93;;;;;;;1.02;100.00;98868.88;5029678;28;20421;-78
2021/04/13 03:14:34;;;;;;;15.00;8.88;;;;;;;0.97;100.00;98858.06;5014164;28;20040;-78
2021/04/13 03:17:05;;;;;;;14.32;8.38;;;;;;;0.98;100.00;98875.66;5012928;28;20084;-78
2021/04/13 03:19:33;;;;;;;19.02;9.30;;;;;;;0.97;100.00;98876.72;5045735;28;20048;-78
2021/04/13 03:22:05;;;;;;;16.50;8.88;;;;;;;0.94;100.00;98874.50;5041691;28;20038;-78
2021/04/13 03:24:38;;;;;;;14.55;9.35;;;;;;;0.95;100.00;98883.31;5049008;28;20041;-79
2021/04/13 03:27:11;;;;;;;17.00;9.00;;;;;;;0.91;100.00;98871.47;5031819;28;20037;-78
2021/04/13 03:29:52;;;;;;;16.27;9.38;;;;;;;0.87;100.00;98871.09;5033079;28;20041;-78
2021/04/13 03:32:25;;;;;;;16.67;9.88;;;;;;;0.86;100.00;98880.13;5033433;28;20092;-78
2021/04/13 03:34:51;;;;;;;18.30;10.23;;;;;;;0.84;100.00;98879.53;5032335;28;20041;-78
2021/04/13 03:37:20;;;;;;;17.73;9.77;;;;;;;0.80;100.00;98870.34;5033170;28;20042;-77
2021/04/13 03:39:47;;;;;;;17.45;10.00;;;;;;;0.76;100.00;98879.81;5055104;28;20073;-78
2021/04/13 03:42:26;;;;;;;16.90;9.95;;;;;;;0.74;100.00;98876.56;5038185;28;20041;-78
2021/04/13 03:44:55;;;;;;;18.02;10.75;;;;;;;0.73;100.00;98876.78;5037529;28;20602;-78
2021/04/13 03:47:27;;;;;;;21.13;10.65;;;;;;;0.73;100.00;98882.94;5035140;28;20128;-78
2021/04/13 03:49:59;;;;;;;22.42;10.75;;;;;;;0.68;100.00;98881.97;5016092;28;20038;-78
2021/04/13 03:52:34;;;;;;;19.02;10.98;;;;;;;0.66;100.00;98881.38;5017802;28;20129;-78
2021/04/13 03:55:22;;;;;;;18.10;10.65;;;;;;;0.67;100.00;98885.69;5018403;28;20080;-78
2021/04/13 03:57:49;;;;;;;17.63;11.07;;;;;;;0.59;100.00;98876.91;5018144;28;20077;-78
2021/04/13 04:00:20;;;;;;;23.05;11.90;;;;;;;0.56;100.00;98877.38;5017137;28;20379;-78
2021/04/13 04:02:49;;;;;;;21.45;12.00;;;;;;;0.54;100.00;98881.31;5050979;28;20088;-78
2021/04/13 04:05:22;;;;;;;23.02;12.05;;;;;;;0.47;100.00;98881.34;5048159;28;20054;-78
2021/04/13 04:07:56;;;;;;;22.10;11.75;;;;;;;0.55;100.00;98881.06;5016729;28;20046;-77
2021/04/13 04:10:44;;;;;;;22.92;12.73;;;;;;;0.55;100.00;98882.91;5017486;28;20041;-77
2021/04/13 04:13:20;;;;;;;19.45;12.05;;;;;;;0.53;100.00;98887.66;5016730;28;20046;-77
2021/04/13 04:16:09;;;;;;;21.08;12.77;;;;;;;0.50;100.00;98883.56;5016117;28;20536;-79
2021/04/13 04:18:42;;;;;;;25.13;13.43;;;;;;;0.45;100.00;98888.75;5009129;28;20092;-78
2021/04/13 04:21:28;;;;;;;23.77;13.70;;;;;;;0.46;100.00;98892.22;5016537;28;20086;-78
2021/04/13 04:23:59;;;;;;;23.10;13.68;;;;;;;0.42;100.00;98886.50;5024916;28;20072;-78
2021/04/13 04:26:29;;;;;;;26.23;14.45;;;;;;;0.49;100.00;98884.59;5048655;28;20041;-79
2021/04/13 04:29:12;;;;;;;24.65;14.35;;;;;;;0.51;100.00;98884.41;5015937;28;20118;-78
2021/04/13 04:31:41;;;;;;;26.23;15.10;;;;;;;0.52;100.00;98886.00;5029934;28;20088;-78
2021/04/13 04:34:14;;;;;;;26.27;14.60;;;;;;;0.52;100.00;98900.16;5040201;28;20056;-77
2021/04/13 04:36:45;;;;;;;28.40;14.88;;;;;;;0.56;100.00;98908.53;5018387;28;20064;-78
2021/04/13 04:39:23;;;;;;;27.10;14.75;;;;;;;0.51;100.00;98908.38;5016704;28;20044;-78
2021/04/13 04:41:50;;;;;;;35.00;15.27;;;;;;;0.49;100.00;98911.25;5033652;28;20457;-78
2021/04/13 04:44:43;;;;;;;28.15;15.05;;;;;;;0.48;100.00;98912.28;5048731;28;20060;-77
2021/04/13 04:47:31;;;;;;;26.63;15.27;;;;;;;0.49;100.00;98916.56;5031189;28;20390;-77
2021/04/13 04:49:57;;;;;;;34.97;17.00;;;;;;;0.51;100.00;98913.69;5051401;28;20037;-78
2021/04/13 04:52:23;;;;;;;30.05;16.75;;;;;;;0.52;100.00;98897.50;5016877;28;20041;-79
2021/04/13 04:54:49;;;;;;;32.20;16.25;;;;;;;0.56;100.00;98914.69;5015328;28;20493;-77
2021/04/13 04:57:15;;;;;;;28.75;16.15;;;;;;;0.61;100.00;98919.34;5032709;28;20049;-77
2021/04/13 04:59:47;;;;;;;29.65;16.33;;;;;;;0.68;100.00;98909.44;5034371;28;20048;-78
2021/04/13 05:02:13;;;;;;;31.63;16.73;;;;;;;0.61;100.00;98916.69;5030561;28;20037;-78
2021/04/13 05:04:41;;;;;;;27.73;15.88;;;;;;;0.65;100.00;98915.19;5049299;28;20041;-77
2021/04/13 05:07:07;;;;;;;28.00;15.00;;;;;;;0.70;100.00;98915.34;5033852;28;20107;-77
2021/04/13 05:09:33;;;;;;;28.17;16.20;;;;;;;0.71;100.00;98909.00;5027228;28;20535;-76
2021/04/13 05:12:01;;;;;;;28.77;16.30;;;;;;;0.74;100.00;98915.72;5014946;28;20045;-76
2021/04/13 05:14:27;;;;;;;29.38;16.20;;;;;;;0.74;100.00;98916.56;5032846;28;20446;-76
2021/04/13 05:16:53;;;;;;;27.50;15.80;;;;;;;0.79;100.00;98916.69;5015665;28;20057;-77
2021/04/13 05:19:21;;;;;;;26.77;15.93;;;;;;;0.85;100.00;98920.34;5015431;28;20045;-77
2021/04/13 05:21:47;;;;;;;27.00;16.17;;;;;;;0.86;100.00;98919.28;5036733;28;20052;-76
2021/04/13 05:24:14;;;;;;;26.15;15.93;;;;;;;0.86;100.00;98928.09;5035848;28;20456;-76
2021/04/13 05:26:41;;;;;;;27.83;15.52;;;;;;;0.92;100.00;98926.41;5016624;28;20045;-78
2021/04/13 05:29:08;;;;;;;26.55;15.57;;;;;;;0.94;100.00;98932.34;5016647;28;20042;-77
2021/04/13 05:31:36;;;;;;;26.48;15.50;;;;;;;1.04;100.00;98929.97;5033614;28;20296;-77
2021/04/13 05:34:03;;;;;;;30.00;15.48;;;;;;;1.05;100.00;98936.94;5037254;28;20046;-78
2021/04/13 05:36:31;;;;;;;26.13;14.98;;;;;;;1.04;100.00;98941.44;5034540;28;20045;-78
2021/04/13 05:38:58;;;;;;;25.48;15.30;;;;;;;1.14;100.00;98939.06;5023255;28;20041;-79
2021/04/13 05:41:26;;;;;;;28.10;15.02;;;;;;;1.16;100.00;98944.22;5031228;28;20045;-78
2021/04/13 05:43:52;;;;;;;26.25;14.82;;;;;;;1.23;100.00;98950.28;5048081;28;20041;-78
2021/04/13 05:46:24;;;;;;;28.13;16.23;;;;;;;1.26;100.00;98950.63;5041458;28;20046;-78
2021/04/13 05:48:55;;;;;;;25.70;14.82;;;;;;;1.27;100.00;98948.78;5047896;28;20045;-78
2021/04/13 05:51:21;;;;;;;29.70;15.95;;;;;;;1.26;100.00;98942.63;5046553;28;20077;-77
2021/04/13 05:53:47;;;;;;;27.38;14.73;;;;;;;1.35;100.00;98953.00;5043871;28;20071;-77
2021/04/13 05:56:22;;;;;;;26.40;14.50;;;;;;;1.38;100.00;98944.56;5019919;28;20053;-77
2021/04/13 05:58:49;;;;;;;26.17;14.90;;;;;;;1.43;100.00;98958.84;5014275;28;20068;-80
2021/04/13 06:01:19;;;;;;;26.10;15.05;;;;;;;1.49;100.00;98952.63;5035010;28;20047;-79
2021/04/13 06:03:46;;;;;;;27.88;15.07;;;;;;;1.54;100.00;98962.63;5015247;28;20045;-79
2021/04/13 06:06:16;;;;;;;24.85;14.25;;;;;;;1.58;100.00;98961.94;5017223;28;20045;-78
2021/04/13 06:08:42;;;;;;;22.70;13.80;;;;;;;1.64;100.00;98957.56;5021047;28;20041;-78
2021/04/13 06:11:14;;;;;;;23.00;14.13;;;;;;;1.67;100.00;98955.28;5034821;28;20041;-77
2021/04/13 06:13:40;;;;;;;26.75;14.55;;;;;;;1.67;100.00;98965.94;5030936;28;20382;-78
2021/04/13 06:16:09;;;;;;;23.88;13.95;;;;;;;1.79;100.00;98963.31;5031044;28;20149;-79
2021/04/13 06:18:35;;;;;;;24.45;13.48;;;;;;;1.88;100.00;98967.31;5030850;28;20292;-77
2021/04/13 06:21:01;;;;;;;24.77;13.82;;;;;;;1.87;100.00;98969.16;5032262;28;20118;-76
2021/04/13 06:23:27;;;;;;;27.15;13.15;;;;;;;1.85;100.00;98959.75;5031507;28;20516;-76
2021/04/13 06:25:53;;;;;;;23.88;12.57;;;;;;;1.85;100.00;98959.75;5030524;28;20049;-76
2021/04/13 06:28:19;;;;;;;24.02;12.88;;;;;;;1.84;100.00;98968.78;5031408;28;20037;-76
2021/04/13 06:30:45;;;;;;;21.52;13.40;;;;;;;2.01;100.00;98969.81;5032682;28;20050;-77
2021/04/13 06:33:13;;;;;;;26.83;12.70;;;;;;;2.17;100.00;98969.13;5031449;28;20041;-76
2021/04/13 06:35:42;;;;;;;21.38;12.90;;;;;;;2.22;100.00;98971.16;5031253;28;20056;-77
2021/04/13 06:38:12;;;;;;;19.92;12.05;;;;;;;2.27;100.00;98972.06;5031829;28;20042;-77
2021/04/13 06:41:00;;;;;;;24.50;12.60;;;;;;;2.30;100.00;98971.63;5032104;28;20280;-77
2021/04/13 06:43:51;;;;;;;19.77;12.07;;;;;;;2.32;100.00;98968.72;5031986;28;20053;-80
2021/04/13 06:46:24;;;;;;;19.67;12.40;;;;;;;2.19;100.00;98974.28;5033696;28;20045;-77
2021/04/13 06:49:02;;;;;;;20.75;12.07;;;;;;;2.35;100.00;98974.41;5030908;28;20047;-77
2021/04/13 06:52:05;;;;;;;21.25;12.30;;;;;;;2.33;100.00;98973.84;5034068;28;20048;-75
2021/04/13 06:54:40;;;;;;;22.35;11.82;;;;;;;2.41;100.00;98980.69;5031786;28;20107;-75
2021/04/13 06:57:18;;;;;;;19.92;11.48;;;;;;;2.43;100.00;98982.09;5014075;28;20561;-75
2021/04/13 06:59:56;;;;;;;19.48;11.55;;;;;;;2.44;100.00;98972.22;5030108;28;20065;-76
2021/04/13 07:02:34;;;;;;;23.50;12.65;;;;;;;2.69;100.00;98982.72;5031016;28;20049;-77
2021/04/13 07:05:14;;;;;;;20.45;11.50;;;;;;;2.80;100.00;98972.03;5031083;28;20069;-76
2021/04/13 07:08:12;;;;;;;19.73;11.68;;;;;;;2.79;100.00;98969.59;5030495;28;20045;-77
2021/04/13 07:10:45;;;;;;;17.40;10.75;;;;;;;2.85;100.00;98976.69;5045531;28;20033;-77
2021/04/13 07:13:50;;;;;;;19.48;10.93;;;;;;;2.95;100.00;98979.59;5053354;28;20041;-76
2021/04/13 07:16:34;;;;;;;16.83;10.38;;;;;;;2.99;100.00;98978.88;5050399;28;20562;-76
2021/04/13 07:19:15;;;;;;;16.10;9.88;;;;;;;2.80;100.00;98981.91;5032176;28;20394;-75
2021/04/13 07:22:07;;;;;;;21.15;10.63;;;;;;;2.77;100.00;98982.38;5049483;28;20076;-77
2021/04/13 07:24:51;;;;;;;21.92;11.07;;;;;;;2.98;100.00;98979.13;5017729;28;20060;-75
2021/04/13 07:27:33;;;;;;;17.50;10.88;;;;;;;3.13;100.00;98993.66;5032738;28;20090;-79
2021/04/13 07:30:07;;;;;;;20.48;10.32;;;;;;;3.17;100.00;98980.66;5049438;28;20045;-77
2021/04/13 07:32:36;;;;;;;17.13;10.52;;;;;;;3.08;100.00;98982.84;5034013;28;20053;-78
2021/04/13 07:35:09;;;;;;;18.67;10.43;;;;;;;3.06;100.00;98981.47;5051549;28;20127;-77
2021/04/13 07:37:45;;;;;;;17.23;9.68;;;;;;;3.27;100.00;98982.72;5039986;28;20056;-77
2021/04/13 07:40:13;;;;;;;18.63;10.52;;;;;;;3.51;100.00;98977.09;5052693;28;20037;-78
2021/04/13 07:42:47;;;;;;;16.67;11.00;;;;;;;3.88;100.00;98985.59;5033948;28;20068;-78
2021/04/13 07:45:18;;;;;;;16.92;10.07;;;;;;;4.02;100.00;98978.09;5050370;28;20503;-77
2021/04/13 07:47:54;;;;;;;15.27;9.75;;;;;;;4.41;100.00;98985.25;5050349;28;20056;-78
2021/04/13 07:50:38;;;;;;;20.38;10.77;;;;;;;4.82;100.00;98984.88;5032844;28;20091;-78
2021/04/13 07:53:17;;;;;;;16.95;9.63;;;;;;;4.40;100.00;98976.38;5031641;28;20203;-77
2021/04/13 07:55:53;;;;;;;18.35;10.50;;;;;;;4.32;100.00;98987.50;5050449;28;20065;-78
2021/04/13 07:58:42;;;;;;;19.10;10.73;;;;;;;4.16;100.00;98977.56;5049848;28;20111;-79
2021/04/13 08:01:09;;;;;;;19.77;10.20;;;;;;;4.52;100.00;98984.34;5051069;28;20111;-78
2021/04/13 08:03:37;;;;;;;15.60;10.05;;;;;;;4.32;100.00;98986.69;5033643;28;20045;-77
2021/04/13 08:06:25;;;;;;;16.55;8.43;;;;;;;4.16;100.00;98980.22;5034870;28;20416;-76
2021/04/13 08:09:05;;;;;;;16.05;9.82;;;;;;;4.67;100.00;98976.53;5062775;23;20052;-77
2021/04/13 08:11:31;;;;;;;16.73;9.80;;;;;;;5.10;100.00;98980.44;5047220;28;20110;-77
2021/04/13 08:14:19;;;;;;;12.95;7.82;;;;;;;5.07;100.00;98975.56;5051216;28;20048;-76
2021/04/13 08:16:45;;;;;;;19.15;8.55;;;;;;;4.57;100.00;98983.66;5010905;28;20555;-77
2021/04/13 08:19:23;;;;;;;17.27;9.07;;;;;;;4.45;100.00;98991.75;5059192;28;20048;-77
2021/04/13 08:22:13;;;;;;;14.88;8.82;;;;;;;4.81;100.00;98990.47;5049987;28;20357;-77
2021/04/13 08:24:47;;;;;;;14.02;8.82;;;;;;;5.51;100.00;98988.00;5029664;28;20060;-77
2021/04/13 08:27:18;;;;;;;17.80;8.32;;;;;;;5.49;100.00;98982.06;5048950;28;20060;-78
2021/04/13 08:30:09;;;;;;;15.57;8.43;;;;;;;4.64;100.00;98977.06;5033683;28;20368;-78
2021/04/13 08:33:27;;;;;;;14.52;8.10;;;;;;;4.33;100.00;98980.28;5018234;28;20161;-78
2021/04/13 08:35:53;;;;;;;19.95;9.13;;;;;;;4.11;100.00;98973.97;5025996;28;20144;-78
2021/04/13 08:38:31;;;;;;;18.65;10.20;;;;;;;4.58;100.00;98972.66;5033982;28;20120;-77
2021/04/13 08:41:13;;;;;;;19.15;10.60;;;;;;;5.19;100.00;98979.75;5051031;28;20531;-77
2021/04/13 08:43:53;;;;;;;14.48;8.90;;;;;;;5.11;100.00;98980.16;5016723;28;20128;-77
2021/04/13 08:46:44;;;;;;;12.07;8.90;;;;;;;5.06;100.00;98982.00;5034095;28;20045;-77
2021/04/13 08:49:30;;;;;;;16.55;10.07;;;;;;;5.26;100.00;98985.78;5033978;28;20041;-77
2021/04/13 08:52:10;;;;;;;14.85;9.00;;;;;;;5.12;100.00;98983.69;5033164;28;20168;-77
2021/04/13 08:54:41;;;;;;;14.05;8.15;;;;;;;4.71;100.00;98985.75;5034934;28;20110;-76
2021/04/13 08:57:11;;;;;;;16.25;9.40;;;;;;;4.41;100.00;98988.72;5023479;28;20120;-79
2021/04/13 08:59:50;;;;;;;14.45;8.98;;;;;;;4.76;100.00;98977.78;5041186;28;20476;-79
2021/04/13 09:02:25;;;;;;;13.27;7.50;;;;;;;4.87;100.00;98979.56;5040365;28;20056;-77
2021/04/13 09:05:09;;;;;;;14.00;8.82;;;;;;;5.08;100.00;98978.00;5052096;28;20070;-77
2021/04/13 09:07:47;;;;;;;9.63;5.07;;;;;;;5.16;100.00;98977.59;5029179;28;20091;-77
2021/04/13 09:10:33;;;;;;;9.48;5.63;;;;;;;5.24;100.00;98971.78;5052926;28;20037;-77
2021/04/13 09:13:11;;;;;;;10.75;5.63;;;;;;;5.20;100.00;98986.75;5051700;28;20044;-78
2021/04/13 09:15:56;;;;;;;15.52;6.00;;;;;;;4.82;100.00;98981.38;5020729;28;20451;-78
2021/04/13 09:18:30;;;;;;;12.15;6.07;;;;;;;5.17;100.00;98981.88;5069218;28;20044;-77
2021/04/13 09:21:14;;;;;;;11.30;6.22;;;;;;;4.87;100.00;98984.94;5092551;28;20435;-77
2021/04/13 09:24:02;;;;;;;11.20;6.15;;;;;;;5.12;100.00;98972.94;5092136;28;20487;-77
2021/04/13 09:26:59;;;;;;;9.90;4.75;;;;;;;5.25;100.00;98980.66;5092122;28;20063;-78
2021/04/13 09:29:34;;;;;;;11.40;5.65;;;;;;;5.02;100.00;98976.28;5092311;28;20043;-77
2021/04/13 09:32:02;;;;;;;11.93;5.22;;;;;;;5.33;100.00;98982.91;5073830;28;20411;-78
2021/04/13 09:34:53;;;;;;;10.45;5.20;;;;;;;5.74;100.00;98958.19;5073510;28;20070;-78
2021/04/13 09:37:42;;;;;;;6.60;4.35;;;;;;;6.78;100.00;98970.28;5098221;28;20040;-78
2021/04/13 09:40:23;;;;;;;7.10;3.97;;;;;;;7.45;100.00;98965.06;5092231;28;20040;-77
2021/04/13 09:43:16;;;;;;;9.23;4.68;;;;;;;7.16;100.00;98965.69;5091334;28;20481;-77
2021/04/13 09:45:56;;;;;;;9.88;4.43;;;;;;;6.92;100.00;98956.38;5043048;28;20059;-77
2021/04/13 09:49:00;;;;;;;8.52;4.05;;;;;;;6.45;100.00;98957.09;5079288;28;20059;-77
2021/04/13 09:52:05;;;;;;;9.27;4.00;;;;;;;6.89;100.00;98955.03;5091069;28;20040;-77
2021/04/13 09:54:42;;;;;;;10.23;3.90;;;;;;;6.40;100.00;98946.25;5074229;28;20048;-78
2021/04/13 09:57:22;;;;;;;10.02;4.07;;;;;;;6.15;100.00;98951.41;5092941;28;20055;-77
2021/04/13 10:00:09;;;;;;;7.43;4.45;;;;;;;6.21;100.00;98961.16;5089877;28;20047;-77
2021/04/13 10:03:00;;;;;;;7.75;4.30;;;;;;;7.45;100.00;98958.84;5092170;28;20539;-78
2021/04/13 10:05:31;;;;;;;8.02;3.53;;;;;;;8.21;88.57;98949.13;5080171;28;20073;-77
2021/04/13 10:08:07;;;;;;;8.48;3.88;;;;;;;8.19;84.43;98962.06;5073127;28;20070;-77
2021/04/13 10:10:47;;;;;;;7.47;3.95;;;;;;;7.22;100.00;98954.69;5090551;28;20051;-77
2021/04/13 10:13:43;;;;;;;9.63;3.28;;;;;;;6.32;100.00;98959.38;5076700;28;20040;-77
2021/04/13 10:16:43;;;;;;;7.15;3.40;;;;;;;6.38;100.00;98953.78;5094787;28;20131;-77
2021/04/13 10:19:49;;;;;;;10.60;4.05;;;;;;;6.69;100.00;98952.16;5082500;28;20079;-76
2021/04/13 10:22:51;;;;;;;10.68;3.55;;;;;;;7.04;100.00;98962.38;5079677;28;20063;-76
2021/04/13 10:25:48;;;;;;;9.00;3.50;;;;;;;7.33;84.57;98950.19;5081959;28;20036;-76
2021/04/13 10:28:51;;;;;;;5.95;3.65;;;;;;;6.68;83.47;98953.25;5074150;28;20056;-76
2021/04/13 10:31:36;;;;;;;10.73;3.83;;;;;;;6.53;100.00;98939.66;5070763;28;20410;-76
2021/04/13 10:34:28;;;;;;;5.93;3.30;;;;;;;6.55;95.30;98938.34;5047415;28;20101;-77
2021/04/13 10:37:04;;;;;;;6.68;3.67;;;;;;;6.17;97.04;98950.09;5073546;28;20526;-77
2021/04/13 10:39:40;;;;;;;7.78;3.20;;;;;;;6.48;100.00;98935.03;5103553;28;20036;-78
2021/04/13 10:42:38;;;;;;;8.32;3.50;;;;;;;6.49;100.00;98938.53;5073840;28;20044;-77
2021/04/13 10:45:25;;;;;;;6.88;3.97;;;;;;;7.14;100.00;98941.72;5091159;28;20470;-77
2021/04/13 10:48:01;;;;;;;7.43;4.00;;;;;;;7.78;100.00;98938.75;5073065;28;20044;-77
2021/04/13 10:50:57;;;;;;;6.97;3.72;;;;;;;9.20;73.13;98943.19;5091314;28;20351;-78
2021/04/13 10:54:04;;;;;;;6.47;3.60;;;;;;;10.21;59.78;98935.50;5091934;28;20051;-77
2021/04/13 10:56:56;;;;;;;4.60;2.90;;;;;;;13.12;51.92;98929.53;5090037;28;20048;-77
2021/04/13 10:59:44;;;;;;;8.10;3.30;;;;;;;11.20;50.46;98921.38;5056898;28;20079;-77
2021/04/13 11:02:33;;;;;;;11.60;3.75;;;;;;;9.78;60.47;98923.50;5090673;28;20048;-77
2021/04/13 11:05:32;;;;;;;5.95;3.03;;;;;;;8.79;57.55;98926.25;5090674;28;20093;-77
2021/04/13 11:08:36;;;;;;;9.35;3.42;;;;;;;8.57;64.14;98934.63;5075330;28;20040;-77
2021/04/13 11:11:23;;;;;;;4.72;2.97;;;;;;;7.79;62.85;98919.66;5101208;28;20407;-76
2021/04/13 11:13:55;;;;;;;7.38;3.13;;;;;;;7.05;69.81;98924.41;5087205;28;20052;-77
2021/04/13 11:16:43;;;;;;;4.57;2.80;;;;;;;6.59;85.14;98909.84;5087362;28;20040;-78
2021/04/13 11:19:21;;;;;;;14.13;2.90;;;;;;;6.25;88.69;98920.03;5086129;28;20052;-77
2021/04/13 11:22:03;;;;;;;7.78;3.30;;;;;;;8.29;77.63;98918.13;5107784;28;20044;-77
2021/04/13 11:24:39;;;;;;;2.90;1.85;;;;;;;10.80;53.77;98916.34;5093408;28;20102;-78
2021/04/13 11:27:30;;;;;;;4.45;1.60;;;;;;;10.17;49.59;98912.00;5113425;28;20603;-78
2021/04/13 11:30:16;;;;;;;4.75;1.90;;;;;;;9.20;53.13;98919.69;5073326;28;20044;-78
2021/04/13 11:33:10;;;;;;;5.10;2.70;;;;;;;7.78;60.83;98923.41;5088114;28;20051;-76
2021/04/13 11:35:42;;;;;;;5.88;2.60;;;;;;;7.01;67.04;98911.75;5105496;28;20040;-76
2021/04/13 11:38:17;;;;;;;5.22;2.40;;;;;;;7.10;70.38;98913.66;5104267;28;20036;-76
2021/04/13 11:41:08;;;;;;;4.25;2.70;;;;;;;7.30;76.27;98918.38;5088903;28;20036;-77
2021/04/13 11:43:45;;;;;;;10.18;2.90;;;;;;;7.41;79.61;98911.94;5090052;28;20097;-77
2021/04/13 11:46:21;;;;;;;6.97;2.25;;;;;;;7.51;86.46;98912.78;5071904;28;20040;-77
2021/04/13 11:48:52;;;;;;;5.38;2.25;;;;;;;7.69;86.72;98906.09;5089584;28;20112;-78
2021/04/13 11:51:31;;;;;;;4.82;2.15;;;;;;;10.18;62.70;98913.59;5074206;28;20452;-78
2021/04/13 11:54:35;;;;;;;6.47;2.08;;;;;;;10.77;55.29;98905.25;5081704;28;20063;-78
2021/04/13 11:57:10;;;;;;;3.55;1.70;;;;;;;10.22;48.86;98907.31;5093645;28;20115;-78
2021/04/13 11:59:38;;;;;;;4.28;1.90;;;;;;;9.19;54.72;98903.75;5094660;28;20040;-78
2021/04/13 12:02:44;;;;;;;5.38;2.10;;;;;;;7.60;66.33;98909.59;5094446;28;20403;-79
2021/04/13 12:05:29;;;;;;;6.72;2.05;;;;;;;6.71;82.36;98915.06;5029531;28;20044;-78
2021/04/13 12:07:55;;;;;;;5.18;1.90;;;;;;;6.49;97.08;98908.94;5077559;28;20048;-77
2021/04/13 12:10:30;;;;;;;4.55;1.83;;;;;;;6.42;99.67;98897.59;5076912;28;20041;-77
2021/04/13 12:13:05;;;;;;;12.07;2.10;;;;;;;6.78;100.00;98910.25;5090024;28;20118;-77